Time;durP1;ratioP1;P1;durP2;ratioP2;P2;SDS_P1;SDS_P2;PMS_P1;PMS_P2;Temp;Humidity;BMP_temperature;BMP_pressure;BME280_temperature;BME280_humidity;BME280_pressure;Samples;Min_cycle;Max_cycle;Signal;HPM_P1;HPM_P2
2022/09/05 00:02:28;;;;;;;3.72;1.50;;;;;;;;;;5026386;28;20145;-58
2022/09/05 00:04:59;;;;;;;2.85;1.67;;;;;;;;;;5029607;28;20045;-61
2022/09/05 00:07:29;;;;;;;3.67;1.90;;;;;;;;;;5024233;28;20064;-55
2022/09/05 00:10:05;;;;;;;3.55;1.70;;;;;;;;;;5034855;28;20085;-58
2022/09/05 00:12:34;;;;;;;4.82;2.05;;;;;;;;;;5032866;28;20119;-59
2022/09/05 00:15:11;;;;;;;4.15;1.60;;;;;;;;;;5009487;28;20053;-58
2022/09/05 00:17:42;;;;;;;3.67;1.60;;;;;;;;;;5009103;28;20061;-56
2022/09/05 00:20:15;;;;;;;3.28;1.60;;;;;;;;;;5013931;28;20057;-60
2022/09/05 00:22:45;;;;;;;4.07;1.80;;;;;;;;;;5013821;28;20111;-61
2022/09/05 00:25:20;;;;;;;3.88;1.77;;;;;;;;;;5035785;28;20057;-61
2022/09/05 00:27:56;;;;;;;4.85;1.85;;;;;;;;;;5027483;28;20052;-54
2022/09/05 00:30:27;;;;;;;3.78;1.83;;;;;;;;;;5025604;28;20126;-65
2022/09/05 00:33:02;;;;;;;5.05;2.10;;;;;;;;;;5008403;28;20045;-58
2022/09/05 00:35:35;;;;;;;3.63;1.90;;;;;;;;;;5043330;28;20131;-64
2022/09/05 00:38:12;;;;;;;6.40;1.80;;;;;;;;;;5013570;28;20060;-62
2022/09/05 00:40:41;;;;;;;3.08;1.60;;;;;;;;;;5007891;28;20099;-54
2022/09/05 00:43:11;;;;;;;4.32;1.85;;;;;;;;;;5014451;28;20054;-59
2022/09/05 00:45:40;;;;;;;3.83;1.67;;;;;;;;;;5026799;28;20053;-57
2022/09/05 00:48:14;;;;;;;4.80;1.92;;;;;;;;;;5033427;28;20538;-64
2022/09/05 00:50:45;;;;;;;3.83;1.70;;;;;;;;;;5035502;28;20116;-62
2022/09/05 00:53:15;;;;;;;2.80;1.60;;;;;;;;;;5030468;28;20053;-60
2022/09/05 00:55:48;;;;;;;3.67;1.73;;;;;;;;;;5035311;28;20098;-58
2022/09/05 00:58:27;;;;;;;3.25;1.60;;;;;;;;;;5029321;28;20056;-62
2022/09/05 01:00:55;;;;;;;3.17;1.83;;;;;;;;;;5031995;28;20057;-64
2022/09/05 01:03:39;;;;;;;4.82;2.05;;;;;;;;;;5028664;28;20041;-62
2022/09/05 01:06:16;;;;;;;3.97;2.03;;;;;;;;;;5024983;28;20054;-63
2022/09/05 01:09:08;;;;;;;4.40;1.50;;;;;;;;;;5018045;28;20064;-63
2022/09/05 01:11:41;;;;;;;3.30;1.80;;;;;;;;;;5023156;28;20064;-67
2022/09/05 01:14:16;;;;;;;3.25;1.63;;;;;;;;;;5029773;28;20061;-68
2022/09/05 01:16:48;;;;;;;5.10;1.80;;;;;;;;;;5033059;28;20057;-68
2022/09/05 01:19:21;;;;;;;3.38;1.70;;;;;;;;;;5029724;28;20235;-67
2022/09/05 01:21:53;;;;;;;3.15;1.50;;;;;;;;;;5033402;28;20125;-68
2022/09/05 01:24:31;;;;;;;3.35;1.70;;;;;;;;;;5030584;28;20056;-68
2022/09/05 01:27:14;;;;;;;3.67;1.90;;;;;;;;;;5032748;28;20098;-66
2022/09/05 01:29:45;;;;;;;4.32;1.77;;;;;;;;;;5021201;28;20053;-69
2022/09/05 01:32:18;;;;;;;2.83;1.52;;;;;;;;;;5052063;28;20138;-68
2022/09/05 01:34:56;;;;;;;3.97;1.77;;;;;;;;;;5049249;28;20054;-56
2022/09/05 01:37:27;;;;;;;3.50;1.80;;;;;;;;;;5052807;28;20052;-69
2022/09/05 01:39:57;;;;;;;4.25;2.00;;;;;;;;;;5048360;28;20087;-67
2022/09/05 01:42:30;;;;;;;3.58;1.77;;;;;;;;;;5053377;28;20084;-63
2022/09/05 01:44:59;;;;;;;4.40;1.60;;;;;;;;;;5050320;28;20055;-67
2022/09/05 01:47:34;;;;;;;3.28;2.00;;;;;;;;;;5014348;28;20115;-66
2022/09/05 01:50:08;;;;;;;3.15;1.73;;;;;;;;;;5013302;28;20057;-69
2022/09/05 01:52:50;;;;;;;3.38;1.75;;;;;;;;;;5032547;28;20053;-69
2022/09/05 01:55:22;;;;;;;4.68;1.80;;;;;;;;;;5049627;28;20053;-67
2022/09/05 01:57:54;;;;;;;5.38;1.80;;;;;;;;;;5031937;28;20061;-67
2022/09/05 02:00:24;;;;;;;3.78;1.70;;;;;;;;;;5048162;28;20077;-62
2022/09/05 02:02:59;;;;;;;4.03;1.77;;;;;;;;;;5045985;28;20072;-66
2022/09/05 02:05:45;;;;;;;4.03;2.00;;;;;;;;;;5051509;28;20048;-68
2022/09/05 02:08:34;;;;;;;7.22;2.40;;;;;;;;;;5051525;28;20068;-67
2022/09/05 02:11:03;;;;;;;4.38;1.88;;;;;;;;;;5043520;28;20115;-62
2022/09/05 02:13:41;;;;;;;6.30;1.95;;;;;;;;;;5045156;28;20140;-64
2022/09/05 02:16:12;;;;;;;5.53;1.98;;;;;;;;;;5030189;28;20067;-67
2022/09/05 02:18:51;;;;;;;3.47;1.73;;;;;;;;;;5031725;28;20053;-66
2022/09/05 02:21:22;;;;;;;3.17;1.75;;;;;;;;;;5031581;28;20052;-60
2022/09/05 02:23:53;;;;;;;4.07;1.92;;;;;;;;;;5031047;28;20060;-67
2022/09/05 02:26:24;;;;;;;2.95;1.67;;;;;;;;;;5032152;28;20052;-63
2022/09/05 02:28:54;;;;;;;5.07;2.40;;;;;;;;;;5063317;28;20104;-64
2022/09/05 02:31:24;;;;;;;2.55;1.40;;;;;;;;;;5052348;28;20072;-58
2022/09/05 02:33:54;;;;;;;4.10;1.90;;;;;;;;;;5030368;28;20041;-60
2022/09/05 02:36:27;;;;;;;3.78;1.75;;;;;;;;;;5032173;28;20111;-64
2022/09/05 02:38:56;;;;;;;4.95;1.90;;;;;;;;;;5044171;28;20067;-61
2022/09/05 02:41:28;;;;;;;3.42;1.85;;;;;;;;;;5052333;28;20052;-63
2022/09/05 02:43:57;;;;;;;3.45;1.58;;;;;;;;;;5033599;28;20128;-65
2022/09/05 02:46:30;;;;;;;4.85;2.17;;;;;;;;;;5031850;28;20106;-58
2022/09/05 02:48:59;;;;;;;3.67;1.90;;;;;;;;;;5029033;28;20053;-67
2022/09/05 02:51:28;;;;;;;3.72;1.70;;;;;;;;;;5032238;28;20049;-63
2022/09/05 02:53:57;;;;;;;5.03;1.80;;;;;;;;;;5028673;28;20080;-68
2022/09/05 02:56:31;;;;;;;5.38;2.00;;;;;;;;;;5031221;28;20044;-62
2022/09/05 02:59:06;;;;;;;7.10;2.45;;;;;;;;;;5037135;28;20120;-62
2022/09/05 03:01:43;;;;;;;3.75;1.45;;;;;;;;;;5051820;28;20056;-68
2022/09/05 03:04:16;;;;;;;3.00;1.60;;;;;;;;;;5037497;28;20045;-65
2022/09/05 03:06:57;;;;;;;3.78;1.83;;;;;;;;;;5033521;28;20103;-66
2022/09/05 03:09:33;;;;;;;3.20;1.63;;;;;;;;;;5028792;28;20064;-58
2022/09/05 03:12:18;;;;;;;3.10;1.70;;;;;;;;;;5031328;28;20468;-62
2022/09/05 03:15:03;;;;;;;4.65;1.98;;;;;;;;;;5027878;28;20049;-60
2022/09/05 03:17:54;;;;;;;3.25;1.88;;;;;;;;;;5030853;28;20057;-57
2022/09/05 03:20:35;;;;;;;5.82;2.60;;;;;;;;;;5027125;28;20049;-66
2022/09/05 03:23:26;;;;;;;4.07;1.70;;;;;;;;;;5048299;28;20048;-64
2022/09/05 03:26:10;;;;;;;3.47;1.50;;;;;;;;;;5026692;28;20052;-57
2022/09/05 03:28:46;;;;;;;4.78;1.73;;;;;;;;;;5011028;28;20072;-62
2022/09/05 03:31:18;;;;;;;4.40;1.70;;;;;;;;;;5051176;28;20059;-54
2022/09/05 03:33:58;;;;;;;3.70;1.88;;;;;;;;;;5045250;28;20060;-54
2022/09/05 03:36:37;;;;;;;7.32;3.17;;;;;;;;;;5007015;28;20056;-59
2022/09/05 03:39:32;;;;;;;7.55;2.72;;;;;;;;;;5011644;28;20054;-55
2022/09/05 03:42:08;;;;;;;5.60;1.85;;;;;;;;;;4971633;28;20139;-63
2022/09/05 03:44:48;;;;;;;4.55;1.92;;;;;;;;;;4985893;28;20148;-59
2022/09/05 03:47:34;;;;;;;4.28;1.73;;;;;;;;;;5010658;28;20056;-59
2022/09/05 03:50:15;;;;;;;6.45;1.70;;;;;;;;;;5004174;28;20051;-64
2022/09/05 03:52:49;;;;;;;3.78;1.83;;;;;;;;;;5010640;28;20057;-64
2022/09/05 03:55:21;;;;;;;5.80;1.90;;;;;;;;;;5004779;28;20081;-66
2022/09/05 03:58:00;;;;;;;5.80;3.00;;;;;;;;;;4990738;28;20160;-58
2022/09/05 04:00:26;;;;;;;;;;;;;;;;;;4985930;28;20046;-64
2022/09/05 04:03:01;;;;;;;3.50;1.67;;;;;;;;;;5011271;28;19925;-60
2022/09/05 04:05:30;;;;;;;7.05;3.03;;;;;;;;;;5006870;28;20123;-59
2022/09/05 04:08:01;;;;;;;6.00;2.60;;;;;;;;;;5011426;28;20052;-59
2022/09/05 04:10:31;;;;;;;3.97;2.08;;;;;;;;;;5011119;28;20088;-61
2022/09/05 04:12:59;;;;;;;8.50;3.90;;;;;;;;;;5037061;28;20057;-60
2022/09/05 04:15:28;;;;;;;7.55;3.97;;;;;;;;;;4990847;28;20058;-57
2022/09/05 04:17:57;;;;;;;4.20;1.90;;;;;;;;;;4988358;28;20065;-53
2022/09/05 04:20:28;;;;;;;8.40;3.42;;;;;;;;;;4991812;28;20054;-60
2022/09/05 04:23:09;;;;;;;7.43;2.40;;;;;;;;;;4988026;28;20069;-54
2022/09/05 04:25:41;;;;;;;4.88;1.90;;;;;;;;;;4991373;28;20042;-68
2022/09/05 04:28:14;;;;;;;5.40;2.42;;;;;;;;;;5003157;28;20064;-68
2022/09/05 04:30:45;;;;;;;4.07;1.75;;;;;;;;;;5013399;28;20419;-60
2022/09/05 04:33:18;;;;;;;5.45;2.17;;;;;;;;;;5026212;28;20049;-64
2022/09/05 04:35:52;;;;;;;7.10;2.30;;;;;;;;;;5031132;28;20057;-68
2022/09/05 04:38:35;;;;;;;8.02;3.15;;;;;;;;;;5030845;28;20067;-68
2022/09/05 04:41:03;;;;;;;4.53;2.00;;;;;;;;;;5031475;28;20061;-65
2022/09/05 04:43:33;;;;;;;5.35;2.28;;;;;;;;;;5042472;28;20063;-67
2022/09/05 04:46:06;;;;;;;6.28;2.67;;;;;;;;;;5068414;28;20053;-55
2022/09/05 04:48:35;;;;;;;6.07;2.90;;;;;;;;;;5045481;28;20130;-54
2022/09/05 04:51:04;;;;;;;5.10;2.30;;;;;;;;;;5052914;28;20061;-67
2022/09/05 04:53:39;;;;;;;3.70;1.75;;;;;;;;;;5039343;28;20136;-60
2022/09/05 04:56:10;;;;;;;4.47;1.98;;;;;;;;;;5051140;28;20188;-56
2022/09/05 04:58:38;;;;;;;5.03;2.22;;;;;;;;;;5048948;28;20055;-58
2022/09/05 05:01:07;;;;;;;6.75;2.65;;;;;;;;;;5040928;28;20061;-67
2022/09/05 05:03:33;;;;;;;;;;;;;;;;;;5043665;28;20060;-55
2022/09/05 05:06:01;;;;;;;4.88;2.45;;;;;;;;;;5036042;28;19921;-58
2022/09/05 05:08:31;;;;;;;5.32;2.45;;;;;;;;;;5035247;28;20045;-64
2022/09/05 05:11:01;;;;;;;9.55;3.03;;;;;;;;;;5027941;28;20048;-66
2022/09/05 05:13:31;;;;;;;5.68;3.05;;;;;;;;;;5030905;28;20041;-58
2022/09/05 05:15:58;;;;;;;5.50;2.30;;;;;;;;;;5040051;28;20109;-57
2022/09/05 05:18:28;;;;;;;7.45;3.13;;;;;;;;;;5032493;28;20048;-61
2022/09/05 05:21:00;;;;;;;9.20;3.72;;;;;;;;;;5039773;28;20045;-58
2022/09/05 05:23:32;;;;;;;5.90;2.63;;;;;;;;;;5029151;28;20072;-62
2022/09/05 05:26:01;;;;;;;8.30;3.33;;;;;;;;;;5040953;28;20053;-56
2022/09/05 05:28:31;;;;;;;11.68;4.18;;;;;;;;;;5037779;28;20045;-63
2022/09/05 05:31:08;;;;;;;7.30;3.20;;;;;;;;;;5033445;28;20048;-56
2022/09/05 05:33:36;;;;;;;8.55;2.95;;;;;;;;;;5040303;28;20785;-55
2022/09/05 05:36:04;;;;;;;4.45;2.17;;;;;;;;;;5032736;28;20070;-58
2022/09/05 05:38:35;;;;;;;12.05;4.57;;;;;;;;;;5035346;28;20078;-55
2022/09/05 05:41:06;;;;;;;6.55;3.00;;;;;;;;;;5032161;28;20049;-60
2022/09/05 05:43:36;;;;;;;6.72;2.70;;;;;;;;;;5032004;28;20052;-53
2022/09/05 05:46:03;;;;;;;5.28;2.70;;;;;;;;;;5029182;28;20049;-67
2022/09/05 05:48:35;;;;;;;6.03;2.60;;;;;;;;;;5032726;28;20125;-57
2022/09/05 05:51:26;;;;;;;5.88;2.67;;;;;;;;;;5029417;28;20075;-64
2022/09/05 05:53:56;;;;;;;7.22;2.60;;;;;;;;;;5022541;28;20061;-66
2022/09/05 05:56:38;;;;;;;4.13;1.95;;;;;;;;;;5028568;28;20072;-65
2022/09/05 05:59:12;;;;;;;5.38;2.72;;;;;;;;;;5033437;28;20052;-66
2022/09/05 06:02:04;;;;;;;4.93;2.30;;;;;;;;;;5028652;28;20060;-64
2022/09/05 06:04:48;;;;;;;5.78;2.28;;;;;;;;;;5033682;28;20056;-68
2022/09/05 06:07:21;;;;;;;5.63;2.33;;;;;;;;;;5011322;28;20045;-67
2022/09/05 06:09:58;;;;;;;15.15;4.00;;;;;;;;;;5013410;28;20088;-67
2022/09/05 06:12:49;;;;;;;10.52;4.40;;;;;;;;;;5027400;28;20064;-62
2022/09/05 06:15:27;;;;;;;12.27;3.65;;;;;;;;;;4994268;28;20053;-59
2022/09/05 06:18:06;;;;;;;10.90;5.28;;;;;;;;;;5032160;28;20057;-60
2022/09/05 06:20:51;;;;;;;6.03;2.72;;;;;;;;;;5033027;28;20053;-61
2022/09/05 06:23:51;;;;;;;4.95;2.35;;;;;;;;;;5013238;28;20072;-60
2022/09/05 06:26:34;;;;;;;8.13;4.30;;;;;;;;;;4975787;28;20112;-67
2022/09/05 06:29:05;;;;;;;5.05;2.40;;;;;;;;;;5010956;28;20082;-66
2022/09/05 06:31:42;;;;;;;11.00;5.32;;;;;;;;;;5042931;28;20064;-68
2022/09/05 06:34:20;;;;;;;9.32;4.00;;;;;;;;;;5032033;28;20049;-67
2022/09/05 06:36:52;;;;;;;7.57;3.30;;;;;;;;;;5026122;28;20388;-58
2022/09/05 06:39:24;;;;;;;3.45;1.90;;;;;;;;;;5031660;28;20072;-63
2022/09/05 06:42:05;;;;;;;7.20;3.42;;;;;;;;;;5027742;28;20059;-60
2022/09/05 06:44:39;;;;;;;10.18;5.00;;;;;;;;;;5031456;28;20053;-61
2022/09/05 06:47:11;;;;;;;6.90;3.80;;;;;;;;;;5026012;28;20057;-69
2022/09/05 06:49:46;;;;;;;6.40;3.42;;;;;;;;;;5031429;28;20048;-69
2022/09/05 06:52:27;;;;;;;11.73;5.07;;;;;;;;;;5024773;28;20069;-64
2022/09/05 06:55:11;;;;;;;11.68;5.00;;;;;;;;;;5013054;28;20056;-61
2022/09/05 06:57:59;;;;;;;9.73;4.65;;;;;;;;;;5020487;28;20048;-65
2022/09/05 07:00:30;;;;;;;11.23;5.05;;;;;;;;;;5031491;28;20045;-64
2022/09/05 07:03:19;;;;;;;5.65;2.50;;;;;;;;;;5026129;28;20108;-66
2022/09/05 07:05:51;;;;;;;10.18;5.00;;;;;;;;;;5024298;28;20054;-65
2022/09/05 07:08:22;;;;;;;12.85;5.85;;;;;;;;;;5028304;28;20045;-63
2022/09/05 07:10:55;;;;;;;12.88;6.68;;;;;;;;;;5039026;28;20099;-61
2022/09/05 07:13:24;;;;;;;5.68;2.83;;;;;;;;;;5029509;28;20064;-68
2022/09/05 07:15:55;;;;;;;6.38;3.28;;;;;;;;;;5042723;28;20102;-61
2022/09/05 07:18:26;;;;;;;5.20;2.80;;;;;;;;;;5032610;28;20052;-59
2022/09/05 07:20:54;;;;;;;10.32;4.57;;;;;;;;;;5030313;28;20045;-59
2022/09/05 07:23:28;;;;;;;8.38;3.90;;;;;;;;;;5035276;28;20122;-62
2022/09/05 07:25:55;;;;;;;9.68;4.65;;;;;;;;;;5025754;28;20053;-67
2022/09/05 07:28:23;;;;;;;17.60;6.93;;;;;;;;;;5050839;28;20040;-66
2022/09/05 07:30:51;;;;;;;10.18;5.18;;;;;;;;;;5028171;28;20052;-66
2022/09/05 07:33:19;;;;;;;7.47;3.77;;;;;;;;;;5034473;28;20061;-67
2022/09/05 07:35:47;;;;;;;12.02;5.18;;;;;;;;;;5029141;28;20049;-68
2022/09/05 07:38:18;;;;;;;7.50;3.80;;;;;;;;;;5031446;28;20080;-65
2022/09/05 07:40:50;;;;;;;11.43;5.90;;;;;;;;;;5033267;28;20064;-59
2022/09/05 07:43:21;;;;;;;12.57;6.25;;;;;;;;;;5026939;28;20048;-58
2022/09/05 07:45:50;;;;;;;7.90;3.17;;;;;;;;;;5032741;28;20122;-57
2022/09/05 07:48:21;;;;;;;7.30;2.95;;;;;;;;;;5031441;28;20048;-63
2022/09/05 07:50:51;;;;;;;7.43;3.83;;;;;;;;;;5035507;28;20119;-66
2022/09/05 07:53:18;;;;;;;12.68;5.82;;;;;;;;;;5025139;28;20168;-62
2022/09/05 07:55:48;;;;;;;6.20;3.03;;;;;;;;;;5032459;28;20061;-67
2022/09/05 07:58:18;;;;;;;13.85;4.80;;;;;;;;;;5028327;28;20057;-62
2022/09/05 08:00:50;;;;;;;8.90;4.57;;;;;;;;;;5031487;28;20060;-67
2022/09/05 08:03:17;;;;;;;7.50;3.42;;;;;;;;;;5022838;28;20136;-68
2022/09/05 08:05:45;;;;;;;6.35;3.33;;;;;;;;;;5020532;28;20076;-66
2022/09/05 08:08:16;;;;;;;8.38;2.85;;;;;;;;;;5035869;28;20135;-68
2022/09/05 08:10:45;;;;;;;9.38;4.28;;;;;;;;;;5022810;28;20053;-66
2022/09/05 08:13:14;;;;;;;7.10;3.63;;;;;;;;;;5029795;28;20049;-69
2022/09/05 08:15:45;;;;;;;8.50;4.20;;;;;;;;;;5024761;28;20049;-68
2022/09/05 08:18:15;;;;;;;11.10;4.40;;;;;;;;;;5032443;28;20053;-60
2022/09/05 08:20:45;;;;;;;11.85;4.43;;;;;;;;;;5021881;28;20061;-65
2022/09/05 08:23:19;;;;;;;13.32;5.90;;;;;;;;;;5034014;28;20056;-67
2022/09/05 08:25:52;;;;;;;17.35;7.03;;;;;;;;;;5053891;28;20049;-67
2022/09/05 08:28:22;;;;;;;11.25;5.88;;;;;;;;;;5033292;28;20059;-64
2022/09/05 08:30:55;;;;;;;13.00;5.75;;;;;;;;;;5039857;28;20049;-67
2022/09/05 08:33:23;;;;;;;12.85;5.88;;;;;;;;;;5029400;28;20053;-65
2022/09/05 08:35:51;;;;;;;10.55;5.53;;;;;;;;;;5075827;28;20136;-66
2022/09/05 08:38:20;;;;;;;11.80;6.13;;;;;;;;;;5033411;28;20130;-66
2022/09/05 08:40:46;;;;;;;;;;;;;;;;;;5034212;28;20044;-70
2022/09/05 08:43:17;;;;;;;13.48;6.15;;;;;;;;;;5025988;28;19935;-62
2022/09/05 08:45:50;;;;;;;10.68;5.13;;;;;;;;;;5075476;28;20243;-65
2022/09/05 08:48:22;;;;;;;12.30;6.00;;;;;;;;;;5036854;28;20057;-62
2022/09/05 08:50:58;;;;;;;17.27;5.93;;;;;;;;;;5034039;28;20139;-61
2022/09/05 08:53:28;;;;;;;9.07;4.90;;;;;;;;;;5034979;28;20049;-58
2022/09/05 08:55:58;;;;;;;14.15;5.78;;;;;;;;;;5058623;28;20125;-64
2022/09/05 08:58:32;;;;;;;8.82;4.03;;;;;;;;;;5025644;28;20060;-64
2022/09/05 09:01:03;;;;;;;11.70;5.47;;;;;;;;;;5034253;28;20157;-63
2022/09/05 09:03:32;;;;;;;12.77;5.22;;;;;;;;;;5043630;28;20160;-64
2022/09/05 09:06:14;;;;;;;14.38;6.20;;;;;;;;;;5024838;28;20057;-65
2022/09/05 09:08:51;;;;;;;15.90;5.63;;;;;;;;;;5035020;28;20073;-67
2022/09/05 09:11:23;;;;;;;10.25;4.97;;;;;;;;;;5027416;28;20050;-65
2022/09/05 09:13:53;;;;;;;10.93;5.18;;;;;;;;;;5014143;28;20063;-55
2022/09/05 09:16:28;;;;;;;17.90;5.32;;;;;;;;;;5033764;28;20055;-66
2022/09/05 09:19:03;;;;;;;14.00;3.85;;;;;;;;;;5017887;28;20050;-64
2022/09/05 09:21:35;;;;;;;12.48;4.32;;;;;;;;;;5018464;28;20057;-62
2022/09/05 09:24:07;;;;;;;9.80;4.10;;;;;;;;;;5012634;28;20049;-62
2022/09/05 09:26:37;;;;;;;10.80;3.85;;;;;;;;;;5041543;28;20052;-67
2022/09/05 09:29:05;;;;;;;10.07;4.07;;;;;;;;;;5030305;28;20110;-66
2022/09/05 09:31:37;;;;;;;12.55;3.65;;;;;;;;;;5045394;28;20055;-67
2022/09/05 09:34:14;;;;;;;7.97;3.63;;;;;;;;;;5048159;28;20053;-68
2022/09/05 09:36:56;;;;;;;9.25;3.88;;;;;;;;;;5054678;28;20056;-67
2022/09/05 09:39:30;;;;;;;11.43;3.40;;;;;;;;;;5048370;28;20053;-67
2022/09/05 09:42:02;;;;;;;11.43;3.70;;;;;;;;;;5054822;28;20049;-67
2022/09/05 09:44:56;;;;;;;8.63;3.13;;;;;;;;;;5055122;28;20074;-66
2022/09/05 09:47:34;;;;;;;7.53;2.85;;;;;;;;;;5051974;28;20121;-69
2022/09/05 09:50:12;;;;;;;5.47;2.17;;;;;;;;;;5068781;28;20048;-68
2022/09/05 09:53:02;;;;;;;12.50;2.88;;;;;;;;;;5051665;28;20061;-69
2022/09/05 09:55:45;;;;;;;7.15;2.88;;;;;;;;;;5034502;28;20053;-67
2022/09/05 09:58:30;;;;;;;8.15;2.83;;;;;;;;;;5054747;28;20053;-67
2022/09/05 10:01:08;;;;;;;7.70;2.47;;;;;;;;;;5052116;28;20088;-61
2022/09/05 10:03:45;;;;;;;6.47;2.38;;;;;;;;;;5061465;28;20110;-64
2022/09/05 10:06:36;;;;;;;6.47;2.53;;;;;;;;;;5046364;28;20048;-67
2022/09/05 10:09:09;;;;;;;10.90;2.00;;;;;;;;;;5045523;28;20052;-55
2022/09/05 10:11:46;;;;;;;7.68;2.03;;;;;;;;;;5045364;28;20052;-64
2022/09/05 10:14:31;;;;;;;3.30;1.80;;;;;;;;;;5044419;28;20048;-60
2022/09/05 10:17:21;;;;;;;5.63;1.88;;;;;;;;;;5052796;28;20050;-68
2022/09/05 10:20:01;;;;;;;4.25;1.90;;;;;;;;;;5032950;28;20163;-63
2022/09/05 10:22:39;;;;;;;3.63;1.77;;;;;;;;;;5052771;28;20068;-58
2022/09/05 10:25:15;;;;;;;6.05;1.83;;;;;;;;;;5049638;28;20056;-58
2022/09/05 10:27:51;;;;;;;4.82;1.90;;;;;;;;;;5054319;28;20048;-62
2022/09/05 10:30:20;;;;;;;4.00;1.83;;;;;;;;;;5048725;28;20052;-55
2022/09/05 10:33:03;;;;;;;4.13;1.77;;;;;;;;;;5054461;28;20056;-62
2022/09/05 10:35:33;;;;;;;4.03;1.48;;;;;;;;;;5043691;28;20057;-62
2022/09/05 10:38:02;;;;;;;4.18;1.70;;;;;;;;;;5054134;28;20048;-53
2022/09/05 10:40:30;;;;;;;2.80;1.58;;;;;;;;;;5050220;28;20052;-63
2022/09/05 10:43:02;;;;;;;3.50;1.50;;;;;;;;;;5050048;28;20064;-66
2022/09/05 10:45:33;;;;;;;3.88;1.48;;;;;;;;;;5043488;28;20052;-62
2022/09/05 10:48:06;;;;;;;6.13;1.73;;;;;;;;;;5049219;28;20048;-70
2022/09/05 10:50:33;;;;;;;6.50;1.60;;;;;;;;;;5046923;28;20064;-64
2022/09/05 10:53:06;;;;;;;2.35;1.48;;;;;;;;;;5056428;28;20040;-59
2022/09/05 10:55:37;;;;;;;2.33;1.30;;;;;;;;;;5049599;28;20139;-62
2022/09/05 10:58:14;;;;;;;6.25;1.65;;;;;;;;;;5055126;28;20071;-68
2022/09/05 11:00:57;;;;;;;5.43;1.43;;;;;;;;;;5038937;28;20086;-61
2022/09/05 11:03:29;;;;;;;4.97;1.45;;;;;;;;;;5052492;28;20052;-70
2022/09/05 11:05:57;;;;;;;3.25;1.60;;;;;;;;;;5049962;28;20085;-70
2022/09/05 11:08:28;;;;;;;4.95;1.70;;;;;;;;;;5049867;28;20138;-67
2022/09/05 11:11:02;;;;;;;2.72;1.42;;;;;;;;;;5049054;28;20145;-65
2022/09/05 11:13:38;;;;;;;3.75;1.52;;;;;;;;;;5048906;28;20060;-70
2022/09/05 11:16:09;;;;;;;2.13;1.15;;;;;;;;;;5048006;28;20041;-71
2022/09/05 11:18:48;;;;;;;2.50;1.35;;;;;;;;;;5054688;28;20074;-65
2022/09/05 11:21:18;;;;;;;2.17;1.00;;;;;;;;;;5047074;28;20060;-65
2022/09/05 11:23:46;;;;;;;3.60;1.20;;;;;;;;;;5049271;28;20057;-61
2022/09/05 11:26:25;;;;;;;3.92;1.23;;;;;;;;;;5048738;28;20060;-65
2022/09/05 11:28:56;;;;;;;3.78;1.30;;;;;;;;;;5049868;28;20083;-71
2022/09/05 11:31:27;;;;;;;3.17;1.20;;;;;;;;;;5048700;28;20052;-61
2022/09/05 11:34:18;;;;;;;3.88;1.00;;;;;;;;;;5055719;28;20052;-70
2022/09/05 11:36:48;;;;;;;2.10;1.00;;;;;;;;;;5028089;28;20068;-66
2022/09/05 11:39:33;;;;;;;1.25;1.00;;;;;;;;;;5069691;28;20057;-74
2022/09/05 11:42:14;;;;;;;2.03;0.90;;;;;;;;;;5044788;28;20044;-67
2022/09/05 11:44:49;;;;;;;4.70;1.00;;;;;;;;;;5056045;28;20052;-63
2022/09/05 11:47:33;;;;;;;5.40;1.27;;;;;;;;;;5049803;28;20140;-65
2022/09/05 11:50:18;;;;;;;1.17;0.88;;;;;;;;;;5056945;28;20060;-68
2022/09/05 11:52:53;;;;;;;3.38;1.20;;;;;;;;;;5027403;28;20052;-57
2022/09/05 11:55:41;;;;;;;1.50;1.08;;;;;;;;;;5049365;28;20072;-65
2022/09/05 11:58:28;;;;;;;2.85;1.05;;;;;;;;;;5045954;28;20075;-64
2022/09/05 12:01:05;;;;;;;4.20;1.20;;;;;;;;;;5066523;28;20060;-61
2022/09/05 12:03:44;;;;;;;1.73;1.00;;;;;;;;;;5045039;28;20057;-66
2022/09/05 12:06:19;;;;;;;4.60;1.20;;;;;;;;;;5053753;28;20135;-67
2022/09/05 12:08:52;;;;;;;3.67;1.30;;;;;;;;;;5047889;28;20069;-66
2022/09/05 12:11:24;;;;;;;1.95;1.02;;;;;;;;;;5054350;28;20056;-67
2022/09/05 12:13:54;;;;;;;6.97;1.30;;;;;;;;;;5045785;28;20071;-65
2022/09/05 12:16:38;;;;;;;6.05;1.25;;;;;;;;;;5052492;28;20175;-71
2022/09/05 12:19:12;;;;;;;3.25;1.40;;;;;;;;;;5045996;28;20071;-67
2022/09/05 12:21:45;;;;;;;2.33;1.10;;;;;;;;;;5052847;28;20053;-71
2022/09/05 12:24:15;;;;;;;1.77;1.08;;;;;;;;;;5049172;28;20060;-73
2022/09/05 12:26:44;;;;;;;2.50;1.30;;;;;;;;;;5053050;28;20038;-71
2022/09/05 12:29:18;;;;;;;1.90;1.15;;;;;;;;;;5048202;28;20052;-59
2022/09/05 12:31:49;;;;;;;1.95;1.10;;;;;;;;;;5065790;28;20061;-65
2022/09/05 12:34:33;;;;;;;2.67;1.20;;;;;;;;;;5049839;28;20048;-57
2022/09/05 12:37:02;;;;;;;2.08;1.10;;;;;;;;;;5051344;28;20152;-62
2022/09/05 12:39:30;;;;;;;1.88;0.90;;;;;;;;;;5045512;28;20055;-64
2022/09/05 12:42:02;;;;;;;1.95;1.05;;;;;;;;;;5055141;28;20068;-69
2022/09/05 12:44:38;;;;;;;2.70;1.10;;;;;;;;;;5045477;28;20053;-56
2022/09/05 12:47:09;;;;;;;4.32;1.30;;;;;;;;;;5050412;28;20056;-56
2022/09/05 12:49:38;;;;;;;4.78;1.38;;;;;;;;;;5050517;28;20052;-53
2022/09/05 12:52:05;;;;;;;4.85;1.40;;;;;;;;;;5054279;28;20064;-67
2022/09/05 12:54:35;;;;;;;4.50;1.38;;;;;;;;;;5050576;28;20132;-59
2022/09/05 12:57:09;;;;;;;2.70;1.08;;;;;;;;;;5052904;28;20052;-57
2022/09/05 12:59:36;;;;;;;4.78;1.10;;;;;;;;;;5063940;28;20056;-62
2022/09/05 13:02:06;;;;;;;3.63;1.10;;;;;;;;;;5048098;28;20048;-62
2022/09/05 13:04:36;;;;;;;1.95;1.00;;;;;;;;;;5042244;28;20055;-60
2022/09/05 13:07:06;;;;;;;1.80;1.13;;;;;;;;;;5051621;28;20049;-68
2022/09/05 13:09:36;;;;;;;1.58;0.77;;;;;;;;;;5054242;28;20053;-68
2022/09/05 13:12:08;;;;;;;1.73;0.95;;;;;;;;;;5056001;28;20101;-66
2022/09/05 13:14:42;;;;;;;2.42;1.10;;;;;;;;;;5055064;28;20057;-68
2022/09/05 13:17:12;;;;;;;1.42;0.90;;;;;;;;;;5049472;28;20057;-68
2022/09/05 13:19:49;;;;;;;3.22;1.50;;;;;;;;;;5053378;28;20060;-65
2022/09/05 13:22:18;;;;;;;5.60;1.05;;;;;;;;;;5049049;28;20064;-59
2022/09/05 13:24:47;;;;;;;1.65;1.02;;;;;;;;;;5057492;28;20049;-71
2022/09/05 13:27:17;;;;;;;1.77;1.20;;;;;;;;;;5050366;28;20101;-65
2022/09/05 13:29:50;;;;;;;3.15;1.30;;;;;;;;;;5056996;28;20057;-55
2022/09/05 13:32:20;;;;;;;1.73;0.90;;;;;;;;;;5047717;28;20144;-60
2022/09/05 13:34:54;;;;;;;4.35;1.55;;;;;;;;;;5056368;28;20083;-62
2022/09/05 13:37:26;;;;;;;1.60;1.13;;;;;;;;;;5051387;28;20059;-71
2022/09/05 13:39:54;;;;;;;1.52;0.95;;;;;;;;;;5054386;28;20107;-53
2022/09/05 13:42:21;;;;;;;3.63;1.30;;;;;;;;;;5045061;28;20057;-71
2022/09/05 13:44:51;;;;;;;3.07;1.10;;;;;;;;;;5054194;28;20071;-64
2022/09/05 13:47:36;;;;;;;5.57;0.90;;;;;;;;;;5050607;28;20056;-58
2022/09/05 13:50:12;;;;;;;2.75;1.10;;;;;;;;;;5055722;28;20048;-68
2022/09/05 13:52:42;;;;;;;1.33;0.82;;;;;;;;;;5050750;28;20143;-61
2022/09/05 13:55:21;;;;;;;3.20;1.30;;;;;;;;;;5055514;28;20080;-66
2022/09/05 13:57:50;;;;;;;1.65;0.95;;;;;;;;;;5052107;28;20049;-73
2022/09/05 14:00:45;;;;;;;2.22;1.20;;;;;;;;;;5072539;28;20040;-75
2022/09/05 14:03:24;;;;;;;2.58;0.95;;;;;;;;;;5036376;28;20049;-59
2022/09/05 14:06:01;;;;;;;1.73;0.90;;;;;;;;;;5052204;28;20080;-68
2022/09/05 14:08:43;;;;;;;1.55;0.90;;;;;;;;;;5039502;28;20053;-65
2022/09/05 14:11:17;;;;;;;3.30;1.10;;;;;;;;;;5054439;28;20071;-72
2022/09/05 14:13:55;;;;;;;1.63;1.08;;;;;;;;;;5048897;28;20045;-75
2022/09/05 14:16:24;;;;;;;1.60;1.10;;;;;;;;;;5075267;28;20061;-69
2022/09/05 14:21:54;;;;;;;2.20;1.23;;;;;;;;;;4990267;28;20086;-71
2022/09/05 14:24:23;;;;;;;2.15;1.30;;;;;;;;;;4995413;28;20147;-73
2022/09/05 14:26:51;;;;;;;1.88;1.20;;;;;;;;;;5017601;28;20106;-60
2022/09/05 14:29:19;;;;;;;1.83;1.15;;;;;;;;;;5050516;28;20139;-66
2022/09/05 14:31:57;;;;;;;2.47;1.10;;;;;;;;;;5055804;28;20057;-71
2022/09/05 14:34:34;;;;;;;2.17;1.10;;;;;;;;;;5044573;28;20057;-73
2022/09/05 14:37:07;;;;;;;1.20;1.00;;;;;;;;;;5050488;28;20053;-69
2022/09/05 14:39:52;;;;;;;1.42;1.00;;;;;;;;;;5067165;28;20059;-67
2022/09/05 14:42:27;;;;;;;2.55;1.00;;;;;;;;;;5050746;28;20049;-73
2022/09/05 14:45:09;;;;;;;2.25;1.10;;;;;;;;;;5051623;28;20053;-63
2022/09/05 14:47:52;;;;;;;1.73;0.95;;;;;;;;;;5053635;28;20053;-74
2022/09/05 14:50:28;;;;;;;2.67;1.15;;;;;;;;;;5035869;28;20057;-69
2022/09/05 14:53:01;;;;;;;1.33;0.98;;;;;;;;;;5045226;28;20060;-69
2022/09/05 14:55:28;;;;;;;4.68;1.45;;;;;;;;;;5049110;28;20140;-64
2022/09/05 14:57:55;;;;;;;1.40;1.05;;;;;;;;;;5057411;28;20053;-66
2022/09/05 15:00:22;;;;;;;1.80;1.00;;;;;;;;;;5046829;28;20056;-60
2022/09/05 15:02:51;;;;;;;2.85;1.30;;;;;;;;;;5054103;28;20057;-60
2022/09/05 15:05:20;;;;;;;5.55;1.17;;;;;;;;;;5049689;28;20056;-63
2022/09/05 15:07:47;;;;;;;1.73;1.10;;;;;;;;;;5052621;28;20063;-61
2022/09/05 15:10:33;;;;;;;1.40;1.00;;;;;;;;;;5045926;28;20060;-60
2022/09/05 15:13:05;;;;;;;1.88;1.15;;;;;;;;;;5056582;28;20075;-60
2022/09/05 15:15:37;;;;;;;1.75;1.17;;;;;;;;;;5048203;28;20087;-61
2022/09/05 15:28:31;;;;;;;19.83;3.90;;;;;;;;;;5206777;23;20165;-63
2022/09/05 15:30:59;;;;;;;20.30;3.40;;;;;;;;;;5043246;28;20048;-67
2022/09/05 15:33:27;;;;;;;12.32;2.80;;;;;;;;;;5064863;28;20145;-64
2022/09/05 15:35:55;;;;;;;16.83;2.75;;;;;;;;;;5051927;28;20059;-75